Time;durP1;ratioP1;P1;durP2;ratioP2;P2;SDS_P1;SDS_P2;PMS_P1;PMS_P2;Temp;Humidity;BMP_temperature;BMP_pressure;BME280_temperature;BME280_humidity;BME280_pressure;Samples;Min_cycle;Max_cycle;Signal;HPM_P1;HPM_P2
2023/04/09 00:01:02;;;;;;;7.65;6.85;;;;;;;20.17;48.25;102377.31;20793031;28;20120;-73
2023/04/09 00:11:03;;;;;;;8.68;7.78;;;;;;;20.12;48.17;102380.34;20790015;28;20060;-74
2023/04/09 00:21:07;;;;;;;8.00;7.18;;;;;;;20.13;47.92;102389.34;20791311;28;20155;-73
2023/04/09 00:31:09;;;;;;;7.43;6.70;;;;;;;20.12;48.02;102393.84;20791346;28;20045;-73
2023/04/09 00:41:11;;;;;;;7.85;7.05;;;;;;;20.10;48.01;102376.88;20791969;28;20045;-73
2023/04/09 00:51:12;;;;;;;8.07;6.45;;;;;;;20.09;47.94;102364.34;20793294;28;20053;-73
2023/04/09 01:01:14;;;;;;;6.45;5.68;;;;;;;20.07;48.00;102363.59;20791554;28;20136;-73
2023/04/09 01:11:37;;;;;;;6.80;5.95;;;;;;;20.05;47.83;102341.22;20794263;28;20045;-73
2023/04/09 01:21:39;;;;;;;6.80;6.13;;;;;;;20.06;47.70;102339.38;20792328;28;20041;-74
2023/04/09 01:31:42;;;;;;;6.50;5.35;;;;;;;20.04;47.84;102334.09;20767765;28;20059;-73
2023/04/09 01:41:44;;;;;;;6.07;5.47;;;;;;;20.04;47.46;102331.41;20780703;28;20065;-73
2023/04/09 01:51:46;;;;;;;6.95;5.55;;;;;;;20.01;47.29;102326.22;20814236;28;20057;-73
2023/04/09 02:01:58;;;;;;;6.22;5.40;;;;;;;19.96;47.20;102314.91;20796481;28;20073;-73
2023/04/09 02:12:03;;;;;;;6.53;5.18;;;;;;;19.80;47.02;102291.69;20810503;28;20037;-73
2023/04/09 02:22:04;;;;;;;5.40;4.68;;;;;;;20.00;47.37;102325.34;20783518;28;20053;-73
2023/04/09 02:32:06;;;;;;;5.70;5.00;;;;;;;20.00;46.92;102327.19;20795957;28;20103;-73
2023/04/09 02:42:08;;;;;;;5.28;4.78;;;;;;;19.94;46.99;102316.84;20798314;28;20111;-73
2023/04/09 02:52:10;;;;;;;5.45;4.72;;;;;;;20.01;46.96;102312.72;20814910;28;20506;-73
2023/04/09 03:02:11;;;;;;;5.22;4.72;;;;;;;19.99;46.81;102303.84;20786574;28;20045;-73
2023/04/09 03:12:13;;;;;;;5.78;4.47;;;;;;;19.98;46.99;102299.44;20801637;28;20092;-73
2023/04/09 03:22:15;;;;;;;5.05;4.55;;;;;;;19.93;46.85;102285.41;20798050;28;20521;-73
2023/04/09 03:32:17;;;;;;;5.18;4.50;;;;;;;19.93;46.91;102274.59;20813825;28;20096;-73
2023/04/09 03:42:22;;;;;;;5.22;4.72;;;;;;;19.93;46.86;102288.94;20794454;28;20045;-73
2023/04/09 03:52:24;;;;;;;5.20;4.70;;;;;;;19.92;46.83;102291.78;20803180;28;20049;-73
2023/04/09 04:02:33;;;;;;;4.93;4.40;;;;;;;19.91;47.14;102288.22;20790911;28;20116;-73
2023/04/09 04:12:38;;;;;;;5.72;4.82;;;;;;;19.92;46.87;102280.97;20820555;28;20048;-73
2023/04/09 04:22:59;;;;;;;5.00;4.50;;;;;;;19.94;47.07;102273.63;20820051;28;20498;-73
2023/04/09 04:33:01;;;;;;;5.13;4.30;;;;;;;19.96;46.99;102277.06;20819232;28;20204;-73
2023/04/09 04:43:10;;;;;;;5.28;4.78;;;;;;;19.99;46.82;102290.34;20802891;28;20041;-73
2023/04/09 04:53:12;;;;;;;5.13;4.63;;;;;;;19.99;47.00;102296.59;20815980;28;20033;-73
2023/04/09 05:03:20;;;;;;;6.65;5.95;;;;;;;20.00;47.00;102284.81;20816357;28;20501;-73
2023/04/09 05:13:46;;;;;;;7.07;5.93;;;;;;;20.02;46.76;102292.81;20816688;28;20048;-73
2023/04/09 05:23:48;;;;;;;5.57;5.07;;;;;;;20.04;46.62;102284.56;20799813;28;20045;-73
2023/04/09 05:33:50;;;;;;;5.45;4.95;;;;;;;20.05;46.63;102295.28;20815506;28;20524;-73
2023/04/09 05:43:56;;;;;;;6.03;5.43;;;;;;;20.06;46.32;102298.81;20814521;28;20061;-73
2023/04/09 05:54:02;;;;;;;6.47;5.70;;;;;;;20.10;46.37;102294.91;20776332;28;20041;-77
2023/04/09 06:04:08;;;;;;;5.10;4.60;;;;;;;20.09;46.71;102291.34;20756694;28;20050;-78
2023/04/09 06:14:16;;;;;;;7.05;6.35;;;;;;;20.13;46.80;102300.97;20737999;28;50441;-74
2023/04/09 06:24:18;;;;;;;8.05;7.07;;;;;;;20.23;46.89;102294.84;20778873;28;20060;-75
2023/04/09 06:34:20;;;;;;;8.70;6.90;;;;;;;20.32;46.57;102294.13;20793381;28;20053;-74
2023/04/09 06:44:23;;;;;;;7.95;6.70;;;;;;;20.41;46.38;102306.97;20807651;28;20053;-74
2023/04/09 06:54:24;;;;;;;7.43;6.65;;;;;;;20.50;46.43;102299.94;20802229;28;20409;-74
2023/04/09 07:04:26;;;;;;;7.30;6.50;;;;;;;20.64;46.55;102303.44;20796817;28;20085;-77
2023/04/09 07:14:28;;;;;;;6.82;5.72;;;;;;;20.73;46.82;102314.38;20779246;28;20154;-73
2023/04/09 07:24:30;;;;;;;8.13;6.35;;;;;;;20.82;46.94;102312.84;20766382;28;20046;-73
2023/04/09 07:34:32;;;;;;;7.28;6.38;;;;;;;20.90;46.78;102324.88;20767434;28;20518;-76
2023/04/09 07:44:37;;;;;;;8.70;7.80;;;;;;;21.04;46.81;102321.97;20771636;28;20482;-77
2023/04/09 07:54:39;;;;;;;9.15;8.07;;;;;;;21.19;46.72;102327.13;20772660;28;20048;-75
2023/04/09 08:04:41;;;;;;;7.88;6.35;;;;;;;21.33;46.63;102320.59;20769914;28;20152;-74
2023/04/09 08:14:43;;;;;;;7.15;6.45;;;;;;;21.44;46.40;102307.03;20784097;28;20103;-73
2023/04/09 08:24:50;;;;;;;7.78;6.90;;;;;;;21.56;46.00;102316.84;20782534;28;20495;-72
2023/04/09 08:34:52;;;;;;;10.88;9.40;;;;;;;21.98;45.76;102312.56;20783758;28;20405;-76
2023/04/09 08:44:53;;;;;;;9.63;8.63;;;;;;;22.41;44.50;102306.19;20800577;28;20081;-77
2023/04/09 08:54:55;;;;;;;10.15;9.15;;;;;;;22.65;44.04;102307.81;20803831;28;20046;-77
2023/04/09 09:04:59;;;;;;;10.45;9.45;;;;;;;22.72;43.83;102314.44;20790679;28;20413;-77
2023/04/09 09:15:02;;;;;;;10.32;8.82;;;;;;;22.77;43.54;102305.03;20779626;28;20049;-77
2023/04/09 09:25:11;;;;;;;10.05;8.98;;;;;;;22.76;43.31;102298.75;20780852;28;20037;-77
2023/04/09 09:35:13;;;;;;;8.50;7.55;;;;;;;22.76;43.39;102297.88;20796318;28;20041;-77
2023/04/09 09:45:18;;;;;;;9.70;8.70;;;;;;;22.76;43.51;102287.00;20785514;28;20048;-77
2023/04/09 09:55:22;;;;;;;8.57;7.72;;;;;;;22.72;43.22;102279.16;20784094;28;20073;-77
2023/04/09 10:05:25;;;;;;;9.17;8.20;;;;;;;22.70;43.36;102277.53;20793299;28;20081;-77
2023/04/09 10:15:27;;;;;;;8.63;7.72;;;;;;;22.67;43.43;102277.81;20790794;28;20099;-77
2023/04/09 10:25:29;;;;;;;8.73;7.82;;;;;;;22.63;43.43;102269.09;20798871;28;20502;-77
2023/04/09 10:35:31;;;;;;;8.48;7.57;;;;;;;22.54;43.44;102251.75;20797456;28;20052;-77
2023/04/09 10:45:40;;;;;;;9.52;8.57;;;;;;;22.48;43.47;102246.00;20786151;28;20049;-77
2023/04/09 10:55:48;;;;;;;9.30;8.35;;;;;;;22.40;43.41;102236.66;20787405;28;20426;-77
2023/04/09 11:06:09;;;;;;;9.32;8.40;;;;;;;22.30;43.50;102223.03;20776518;28;20569;-77
2023/04/09 11:16:10;;;;;;;8.00;7.20;;;;;;;22.33;43.47;102212.91;20772462;28;20049;-77
2023/04/09 11:26:29;;;;;;;7.75;6.95;;;;;;;22.27;43.15;102215.16;20778576;28;20120;-77
2023/04/09 11:36:33;;;;;;;8.82;7.68;;;;;;;22.20;43.16;102203.13;20787713;28;20072;-75
2023/04/09 11:46:35;;;;;;;7.47;6.70;;;;;;;22.20;43.13;102205.00;20755679;28;20133;-76
2023/04/09 11:56:37;;;;;;;6.78;6.07;;;;;;;22.20;43.06;102194.13;20797402;28;20545;-75
2023/04/09 12:06:39;;;;;;;7.75;6.95;;;;;;;22.14;43.17;102190.97;20778510;28;20072;-77
2023/04/09 12:16:43;;;;;;;7.28;6.50;;;;;;;22.13;43.06;102191.09;20769023;28;20049;-77
2023/04/09 12:26:46;;;;;;;7.57;6.77;;;;;;;22.15;43.14;102192.69;20758610;28;20038;-77
2023/04/09 12:36:47;;;;;;;7.07;6.38;;;;;;;22.17;42.97;102177.13;20775802;28;20517;-75
2023/04/09 12:46:49;;;;;;;8.40;7.55;;;;;;;22.14;43.12;102173.81;20790937;28;20074;-73
2023/04/09 12:56:51;;;;;;;7.18;6.32;;;;;;;22.10;42.95;102167.81;20760168;28;20046;-74
2023/04/09 13:06:52;;;;;;;5.65;5.05;;;;;;;22.05;43.13;102163.78;20771581;28;20492;-76
2023/04/09 13:16:54;;;;;;;7.68;6.88;;;;;;;22.07;43.02;102156.38;20756749;28;20037;-77
2023/04/09 13:26:56;;;;;;;6.75;6.00;;;;;;;22.04;43.25;102146.63;20767370;28;20128;-75
2023/04/09 13:36:57;;;;;;;6.18;5.57;;;;;;;22.00;43.17;102142.47;20763437;28;20622;-74
2023/04/09 13:46:59;;;;;;;6.07;5.22;;;;;;;22.02;42.94;102137.78;20768143;28;20494;-74
2023/04/09 13:57:02;;;;;;;7.22;6.35;;;;;;;21.94;43.03;102114.06;20763696;28;20053;-75
2023/04/09 14:07:05;;;;;;;6.10;5.50;;;;;;;21.91;43.03;102110.75;20761367;28;20045;-76
2023/04/09 14:17:06;;;;;;;6.53;5.57;;;;;;;21.90;42.89;102106.31;20767485;28;20498;-74
2023/04/09 14:27:08;;;;;;;5.90;5.30;;;;;;;21.87;42.65;102096.59;20775876;28;20061;-75
2023/04/09 14:37:09;;;;;;;5.70;5.20;;;;;;;21.85;42.76;102083.19;20766147;28;20121;-76
2023/04/09 14:47:11;;;;;;;5.07;4.38;;;;;;;21.84;42.83;102076.03;20780011;28;20045;-74
2023/04/09 14:57:13;;;;;;;5.05;4.28;;;;;;;21.83;42.38;102079.75;20769077;28;20088;-74
2023/04/09 15:07:14;;;;;;;6.38;5.05;;;;;;;21.84;42.30;102058.91;20782935;28;20092;-72
2023/04/09 15:17:16;;;;;;;6.07;4.55;;;;;;;21.88;43.38;102042.25;20765961;28;20045;-74
2023/04/09 15:27:18;;;;;;;5.50;4.90;;;;;;;21.93;43.30;102050.00;20781238;28;50149;-76
2023/04/09 15:37:32;;;;;;;8.85;5.07;;;;;;;21.92;43.37;102039.25;20915340;28;49490;-84
2023/04/09 15:57:23;;;;;;;4.60;4.05;;;;;;;21.90;44.77;102025.88;20973703;27;49488;-72
2023/04/09 16:12:23;;;;;;;5.20;4.50;;;;;;;21.92;46.40;102006.75;21021507;27;20645;-74
2023/04/09 16:24:59;;;;;;;6.93;4.45;;;;;;;22.02;47.64;101994.06;20710845;27;20133;-72
2023/04/09 16:35:01;;;;;;;5.25;4.30;;;;;;;22.11;47.64;101984.25;20697171;28;20133;-72
2023/04/09 16:45:03;;;;;;;4.45;4.00;;;;;;;22.06;47.33;101984.66;20720381;28;48095;-79
2023/04/09 17:02:57;;;;;;;4.30;3.90;;;;;;;21.93;46.63;101982.22;20852573;27;50528;-76
2023/04/09 17:17:01;;;;;;;5.10;4.60;;;;;;;21.81;46.12;101999.53;20709033;27;20473;-83
2023/04/09 17:27:03;;;;;;;6.95;4.88;;;;;;;21.76;46.21;102005.41;20703082;28;20147;-77
2023/04/09 17:37:05;;;;;;;4.45;3.78;;;;;;;21.72;45.80;102001.25;20694574;28;20450;-74
2023/04/09 17:47:06;;;;;;;5.70;4.22;;;;;;;21.67;46.42;101998.91;20687694;28;20105;-73
2023/04/09 17:57:08;;;;;;;7.53;4.38;;;;;;;21.54;47.17;101992.84;20704991;28;20122;-72
2023/04/09 18:07:09;;;;;;;5.85;3.95;;;;;;;21.59;47.46;101994.13;20706311;28;20050;-71
2023/04/09 18:17:11;;;;;;;8.18;4.20;;;;;;;21.54;47.87;101990.97;20698124;28;20054;-70
2023/04/09 18:27:16;;;;;;;5.15;4.25;;;;;;;21.47;47.13;102003.34;20632689;28;20062;-69
2023/04/09 18:37:20;;;;;;;5.50;3.55;;;;;;;21.35;46.41;101990.88;20639096;28;20053;-70
2023/04/09 18:47:24;;;;;;;4.93;4.25;;;;;;;21.39;45.81;102005.88;20637009;28;20086;-70
2023/04/09 18:57:26;;;;;;;5.32;4.10;;;;;;;21.37;45.43;102002.44;20641946;28;20042;-70
2023/04/09 19:07:27;;;;;;;5.65;4.50;;;;;;;21.33;45.14;102006.41;20645103;28;20105;-70
2023/04/09 19:17:29;;;;;;;4.93;4.38;;;;;;;21.28;45.08;102010.38;20653746;28;20113;-70
2023/04/09 19:27:31;;;;;;;6.15;5.38;;;;;;;21.25;44.98;102012.47;20631979;28;20082;-73
2023/04/09 19:37:33;;;;;;;9.93;5.63;;;;;;;21.22;45.34;102002.78;20635077;28;20101;-70
2023/04/09 19:47:37;;;;;;;6.70;5.28;;;;;;;21.06;45.09;101995.09;20641324;28;20049;-71
2023/04/09 19:57:39;;;;;;;9.50;7.05;;;;;;;21.20;44.77;102012.84;20641476;28;20134;-71
2023/04/09 20:07:43;;;;;;;9.23;6.70;;;;;;;21.13;44.61;102023.34;20640748;28;20086;-70
2023/04/09 20:17:48;;;;;;;8.43;6.30;;;;;;;21.04;44.83;102004.31;20634048;28;20046;-70
2023/04/09 20:27:53;;;;;;;13.30;7.07;;;;;;;20.97;44.60;101996.72;20648727;28;20050;-70
2023/04/09 20:37:55;;;;;;;9.00;7.07;;;;;;;20.96;44.90;101981.47;20656417;28;20046;-70
2023/04/09 20:47:56;;;;;;;10.00;7.68;;;;;;;20.96;45.95;101972.47;20656425;28;20054;-70
2023/04/09 20:57:59;;;;;;;9.40;8.00;;;;;;;20.95;45.90;101976.19;20655651;28;20058;-70
2023/04/09 21:08:00;;;;;;;8.68;7.00;;;;;;;20.93;45.95;101973.63;20654903;28;21036;-70
2023/04/09 21:18:02;;;;;;;8.63;7.38;;;;;;;20.89;45.57;101955.94;20655235;28;20101;-70
2023/04/09 21:28:05;;;;;;;8.10;6.90;;;;;;;20.86;45.32;101939.94;20636560;28;20043;-70
2023/04/09 21:38:06;;;;;;;8.70;6.70;;;;;;;20.83;45.20;101951.88;20651875;28;20770;-71
2023/04/09 21:48:08;;;;;;;8.45;7.18;;;;;;;20.80;44.83;101952.16;20653519;28;20128;-70
2023/04/09 21:58:10;;;;;;;10.02;7.97;;;;;;;20.78;44.53;101953.25;20659882;28;20532;-70
2023/04/09 22:08:12;;;;;;;11.10;9.20;;;;;;;20.73;44.53;101949.06;20667434;28;20050;-70
2023/04/09 22:18:13;;;;;;;8.70;7.70;;;;;;;20.70;44.46;101946.59;20666941;28;20054;-70
2023/04/09 22:28:15;;;;;;;8.82;7.93;;;;;;;20.63;44.25;101956.22;20665088;28;20466;-70
2023/04/09 22:38:16;;;;;;;10.70;8.45;;;;;;;20.58;44.31;101969.28;20665171;28;20058;-70
2023/04/09 22:48:19;;;;;;;10.75;9.63;;;;;;;20.54;44.22;101957.00;20665404;28;20077;-70
2023/04/09 22:58:21;;;;;;;9.77;8.32;;;;;;;20.50;44.00;101950.16;20663654;28;20530;-70
2023/04/09 23:08:22;;;;;;;12.57;10.80;;;;;;;20.46;43.77;101943.28;20663537;28;20057;-70
2023/04/09 23:18:24;;;;;;;11.10;10.00;;;;;;;20.41;43.71;101920.19;20661998;28;20081;-70
2023/04/09 23:28:26;;;;;;;12.45;11.15;;;;;;;20.39;43.57;101905.94;20660814;28;20050;-70
2023/04/09 23:38:27;;;;;;;14.75;12.00;;;;;;;20.38;43.52;101903.34;20660821;28;20145;-70
2023/04/09 23:48:29;;;;;;;14.15;12.43;;;;;;;20.36;43.38;101895.38;20656443;28;20486;-70
2023/04/09 23:58:30;;;;;;;16.33;12.48;;;;;;;20.33;43.36;101886.63;20648766;28;20058;-70
